sensor_id;sensor_type;location;lat;lon;timestamp;pressure;altitude;pressure_sealevel;temperature
69364;BMP280;56526;55.406;86.130;2022-10-19T00:01:18;98490.69;;;3.13
69364;BMP280;56526;55.406;86.130;2022-10-19T00:03:49;98499.31;;;3.14
69364;BMP280;56526;55.406;86.130;2022-10-19T00:06:26;98492.28;;;3.14
69364;BMP280;56526;55.406;86.130;2022-10-19T00:08:59;98487.31;;;3.13
69364;BMP280;56526;55.406;86.130;2022-10-19T00:11:28;98496.19;;;3.12
69364;BMP280;56526;55.406;86.130;2022-10-19T00:14:00;98492.78;;;3.11
69364;BMP280;56526;55.406;86.130;2022-10-19T00:16:30;98492.00;;;3.11
69364;BMP280;56526;55.406;86.130;2022-10-19T00:19:02;98502.47;;;3.11
69364;BMP280;56526;55.406;86.130;2022-10-19T00:21:32;98497.75;;;3.08
69364;BMP280;56526;55.406;86.130;2022-10-19T00:23:58;98495.91;;;3.08
69364;BMP280;56526;55.406;86.130;2022-10-19T00:26:25;98501.94;;;3.09
69364;BMP280;56526;55.406;86.130;2022-10-19T00:28:54;98500.34;;;3.08
69364;BMP280;56526;55.406;86.130;2022-10-19T00:31:25;98504.56;;;3.09
69364;BMP280;56526;55.406;86.130;2022-10-19T00:33:54;98497.25;;;3.11
69364;BMP280;56526;55.406;86.130;2022-10-19T00:36:31;98501.69;;;3.10
69364;BMP280;56526;55.406;86.130;2022-10-19T00:39:01;98500.63;;;3.11
69364;BMP280;56526;55.406;86.130;2022-10-19T00:41:31;98492.78;;;3.11
69364;BMP280;56526;55.406;86.130;2022-10-19T00:46:45;98496.47;;;3.10
69364;BMP280;56526;55.406;86.130;2022-10-19T00:49:19;98506.91;;;3.10
69364;BMP280;56526;55.406;86.130;2022-10-19T00:52:00;98507.69;;;3.11
69364;BMP280;56526;55.406;86.130;2022-10-19T00:54:31;98502.47;;;3.11
69364;BMP280;56526;55.406;86.130;2022-10-19T00:56:58;98508.47;;;3.11
69364;BMP280;56526;55.406;86.130;2022-10-19T00:59:27;98512.13;;;3.10
69364;BMP280;56526;55.406;86.130;2022-10-19T01:01:54;98506.13;;;3.10
69364;BMP280;56526;55.406;86.130;2022-10-19T01:04:22;98504.28;;;3.10
69364;BMP280;56526;55.406;86.130;2022-10-19T01:06:51;98510.31;;;3.11
69364;BMP280;56526;55.406;86.130;2022-10-19T01:09:20;98511.34;;;3.10
69364;BMP280;56526;55.406;86.130;2022-10-19T01:12:16;98515.03;;;3.09
69364;BMP280;56526;55.406;86.130;2022-10-19T01:19:01;98512.41;;;3.09
69364;BMP280;56526;55.406;86.130;2022-10-19T01:25:12;98522.06;;;3.13
69364;BMP280;56526;55.406;86.130;2022-10-19T01:31:43;98519.97;;;3.15
69364;BMP280;56526;55.406;86.130;2022-10-19T01:46:13;98544.78;;;3.18
69364;BMP280;56526;55.406;86.130;2022-10-19T01:48:59;98535.38;;;3.17
69364;BMP280;56526;55.406;86.130;2022-10-19T01:51:36;98540.09;;;3.15
69364;BMP280;56526;55.406;86.130;2022-10-19T01:54:12;98543.75;;;3.14
69364;BMP280;56526;55.406;86.130;2022-10-19T01:56:45;98550.03;;;3.13
69364;BMP280;56526;55.406;86.130;2022-10-19T01:59:13;98560.47;;;3.13
69364;BMP280;56526;55.406;86.130;2022-10-19T02:01:44;98564.16;;;3.12
69364;BMP280;56526;55.406;86.130;2022-10-19T02:04:14;98556.84;;;3.09
69364;BMP280;56526;55.406;86.130;2022-10-19T02:06:43;98565.16;;;3.06
69364;BMP280;56526;55.406;86.130;2022-10-19T02:09:09;98566.47;;;3.03
69364;BMP280;56526;55.406;86.130;2022-10-19T02:11:36;98566.22;;;3.05
69364;BMP280;56526;55.406;86.130;2022-10-19T02:14:09;98567.53;;;3.07
69364;BMP280;56526;55.406;86.130;2022-10-19T02:16:43;98576.69;;;3.10
69364;BMP280;56526;55.406;86.130;2022-10-19T02:19:15;98571.47;;;3.10
69364;BMP280;56526;55.406;86.130;2022-10-19T02:21:42;98581.66;;;3.11
69364;BMP280;56526;55.406;86.130;2022-10-19T02:24:09;98568.31;;;3.13
69364;BMP280;56526;55.406;86.130;2022-10-19T02:26:35;98577.72;;;3.14
69364;BMP280;56526;55.406;86.130;2022-10-19T02:29:02;98577.22;;;3.17
69364;BMP280;56526;55.406;86.130;2022-10-19T02:31:29;98578.28;;;3.21
69364;BMP280;56526;55.406;86.130;2022-10-19T02:33:55;98586.34;;;3.24
69364;BMP280;56526;55.406;86.130;2022-10-19T02:36:22;98592.38;;;3.30
69364;BMP280;56526;55.406;86.130;2022-10-19T02:38:48;98591.59;;;3.35
69364;BMP280;56526;55.406;86.130;2022-10-19T02:41:22;98588.19;;;3.39
69364;BMP280;56526;55.406;86.130;2022-10-19T02:44:04;98596.31;;;3.43
69364;BMP280;56526;55.406;86.130;2022-10-19T02:46:39;98598.66;;;3.44
69364;BMP280;56526;55.406;86.130;2022-10-19T02:49:09;98602.06;;;3.45
69364;BMP280;56526;55.406;86.130;2022-10-19T02:52:00;98595.25;;;3.44
69364;BMP280;56526;55.406;86.130;2022-10-19T02:54:27;98595.00;;;3.40
69364;BMP280;56526;55.406;86.130;2022-10-19T02:56:54;98601.28;;;3.39
69364;BMP280;56526;55.406;86.130;2022-10-19T02:59:22;98604.69;;;3.40
69364;BMP280;56526;55.406;86.130;2022-10-19T03:01:49;98603.91;;;3.39
69364;BMP280;56526;55.406;86.130;2022-10-19T03:04:16;98603.91;;;3.39
69364;BMP280;56526;55.406;86.130;2022-10-19T03:06:42;98614.09;;;3.41
69364;BMP280;56526;55.406;86.130;2022-10-19T03:09:09;98615.38;;;3.43
69364;BMP280;56526;55.406;86.130;2022-10-19T03:11:35;98615.38;;;3.43
69364;BMP280;56526;55.406;86.130;2022-10-19T03:14:02;98609.38;;;3.43
69364;BMP280;56526;55.406;86.130;2022-10-19T03:16:28;98621.66;;;3.42
69364;BMP280;56526;55.406;86.130;2022-10-19T03:18:54;98615.38;;;3.43
69364;BMP280;56526;55.406;86.130;2022-10-19T03:21:20;98611.22;;;3.42
69364;BMP280;56526;55.406;86.130;2022-10-19T03:23:46;98613.56;;;3.44
69364;BMP280;56526;55.406;86.130;2022-10-19T03:26:14;98615.38;;;3.43
69364;BMP280;56526;55.406;86.130;2022-10-19T03:28:42;98621.41;;;3.44
69364;BMP280;56526;55.406;86.130;2022-10-19T03:31:09;98618.53;;;3.45
69364;BMP280;56526;55.406;86.130;2022-10-19T03:33:35;98625.31;;;3.46
69364;BMP280;56526;55.406;86.130;2022-10-19T03:36:22;98622.47;;;3.48
69364;BMP280;56526;55.406;86.130;2022-10-19T03:38:54;98613.56;;;3.49
69364;BMP280;56526;55.406;86.130;2022-10-19T03:41:23;98615.91;;;3.50
69364;BMP280;56526;55.406;86.130;2022-10-19T03:43:51;98616.94;;;3.49
69364;BMP280;56526;55.406;86.130;2022-10-19T03:46:19;98623.75;;;3.50
69364;BMP280;56526;55.406;86.130;2022-10-19T03:48:47;98622.97;;;3.50
69364;BMP280;56526;55.406;86.130;2022-10-19T03:51:22;98628.97;;;3.50
69364;BMP280;56526;55.406;86.130;2022-10-19T03:53:59;98631.59;;;3.50
69364;BMP280;56526;55.406;86.130;2022-10-19T03:56:28;98632.63;;;3.49
69364;BMP280;56526;55.406;86.130;2022-10-19T03:58:57;98633.44;;;3.50
69364;BMP280;56526;55.406;86.130;2022-10-19T04:01:27;98630.81;;;3.50
69364;BMP280;56526;55.406;86.130;2022-10-19T04:03:56;98637.59;;;3.51
69364;BMP280;56526;55.406;86.130;2022-10-19T04:06:28;98631.59;;;3.50
69364;BMP280;56526;55.406;86.130;2022-10-19T04:09:02;98638.91;;;3.53
69364;BMP280;56526;55.406;86.130;2022-10-19T04:11:30;98641.81;;;3.57
69364;BMP280;56526;55.406;86.130;2022-10-19T04:13:58;98638.66;;;3.60
69364;BMP280;56526;55.406;86.130;2022-10-19T04:16:26;98640.75;;;3.63
69364;BMP280;56526;55.406;86.130;2022-10-19T04:18:53;98640.22;;;3.66
69364;BMP280;56526;55.406;86.130;2022-10-19T04:21:24;98636.31;;;3.69
69364;BMP280;56526;55.406;86.130;2022-10-19T04:23:55;98644.69;;;3.71
69364;BMP280;56526;55.406;86.130;2022-10-19T04:26:24;98641.25;;;3.75
69364;BMP280;56526;55.406;86.130;2022-10-19T04:28:51;98641.25;;;3.80
69364;BMP280;56526;55.406;86.130;2022-10-19T04:31:17;98644.91;;;3.84
69364;BMP280;56526;55.406;86.130;2022-10-19T04:33:43;98642.56;;;3.88
69364;BMP280;56526;55.406;86.130;2022-10-19T04:36:10;98643.09;;;3.90
69364;BMP280;56526;55.406;86.130;2022-10-19T04:38:37;98644.13;;;3.94
69364;BMP280;56526;55.406;86.130;2022-10-19T04:41:10;98648.81;;;3.97
69364;BMP280;56526;55.406;86.130;2022-10-19T04:43:38;98647.53;;;3.95
69364;BMP280;56526;55.406;86.130;2022-10-19T04:46:09;98649.13;;;3.96
69364;BMP280;56526;55.406;86.130;2022-10-19T04:48:37;98647.78;;;3.98
69364;BMP280;56526;55.406;86.130;2022-10-19T04:51:04;98654.81;;;4.03
69364;BMP280;56526;55.406;86.130;2022-10-19T04:53:32;98656.94;;;4.06
69364;BMP280;56526;55.406;86.130;2022-10-19T04:55:59;98650.66;;;4.07
69364;BMP280;56526;55.406;86.130;2022-10-19T04:58:28;98654.84;;;4.08
69364;BMP280;56526;55.406;86.130;2022-10-19T05:00:55;98653.25;;;4.07
69364;BMP280;56526;55.406;86.130;2022-10-19T05:03:21;98646.19;;;4.07
69364;BMP280;56526;55.406;86.130;2022-10-19T05:05:47;98655.88;;;4.12
69364;BMP280;56526;55.406;86.130;2022-10-19T05:08:14;98649.06;;;4.16
69364;BMP280;56526;55.406;86.130;2022-10-19T05:10:41;98657.13;;;4.20
69364;BMP280;56526;55.406;86.130;2022-10-19T05:13:07;98660.28;;;4.27
69364;BMP280;56526;55.406;86.130;2022-10-19T05:15:34;98657.91;;;4.35
69364;BMP280;56526;55.406;86.130;2022-10-19T05:18:00;98653.69;;;4.39
69364;BMP280;56526;55.406;86.130;2022-10-19T05:20:26;98660.22;;;4.42
69364;BMP280;56526;55.406;86.130;2022-10-19T05:22:52;98660.47;;;4.40
69364;BMP280;56526;55.406;86.130;2022-10-19T05:25:19;98656.59;;;4.38
69364;BMP280;56526;55.406;86.130;2022-10-19T05:27:49;98658.44;;;4.37
69364;BMP280;56526;55.406;86.130;2022-10-19T05:30:18;98658.44;;;4.37
69364;BMP280;56526;55.406;86.130;2022-10-19T05:32:48;98659.22;;;4.38
69364;BMP280;56526;55.406;86.130;2022-10-19T05:35:14;98656.59;;;4.38
69364;BMP280;56526;55.406;86.130;2022-10-19T05:37:41;98661.03;;;4.37
69364;BMP280;56526;55.406;86.130;2022-10-19T05:40:08;98658.44;;;4.37
69364;BMP280;56526;55.406;86.130;2022-10-19T05:42:35;98662.38;;;4.35
69364;BMP280;56526;55.406;86.130;2022-10-19T05:45:02;98660.00;;;4.33
69364;BMP280;56526;55.406;86.130;2022-10-19T05:47:29;98658.41;;;4.32
69364;BMP280;56526;55.406;86.130;2022-10-19T05:49:56;98662.63;;;4.28
69364;BMP280;56526;55.406;86.130;2022-10-19T05:52:22;98658.97;;;4.24
69364;BMP280;56526;55.406;86.130;2022-10-19T05:54:48;98660.28;;;4.22
69364;BMP280;56526;55.406;86.130;2022-10-19T05:57:15;98657.91;;;4.20
69364;BMP280;56526;55.406;86.130;2022-10-19T05:59:42;98663.69;;;4.17
69364;BMP280;56526;55.406;86.130;2022-10-19T06:02:12;98661.88;;;4.18
69364;BMP280;56526;55.406;86.130;2022-10-19T06:04:38;98658.47;;;4.17
69364;BMP280;56526;55.406;86.130;2022-10-19T06:07:04;98661.59;;;4.19
69364;BMP280;56526;55.406;86.130;2022-10-19T06:09:32;98662.91;;;4.22
69364;BMP280;56526;55.406;86.130;2022-10-19T06:11:58;98666.81;;;4.24
69364;BMP280;56526;55.406;86.130;2022-10-19T06:14:25;98660.56;;;4.25
69364;BMP280;56526;55.406;86.130;2022-10-19T06:16:51;98657.91;;;4.30
69364;BMP280;56526;55.406;86.130;2022-10-19T06:19:17;98668.38;;;4.35
69364;BMP280;56526;55.406;86.130;2022-10-19T06:21:44;98657.06;;;4.40
69364;BMP280;56526;55.406;86.130;2022-10-19T06:24:10;98664.41;;;4.43
69364;BMP280;56526;55.406;86.130;2022-10-19T06:26:37;98662.84;;;4.47
69364;BMP280;56526;55.406;86.130;2022-10-19T06:29:04;98661.50;;;4.50
69364;BMP280;56526;55.406;86.130;2022-10-19T06:31:32;98664.91;;;4.55
69364;BMP280;56526;55.406;86.130;2022-10-19T06:33:59;98660.94;;;4.58
69364;BMP280;56526;55.406;86.130;2022-10-19T06:36:28;98656.22;;;4.60
69364;BMP280;56526;55.406;86.130;2022-10-19T06:38:56;98659.34;;;4.62
69364;BMP280;56526;55.406;86.130;2022-10-19T06:41:22;98655.66;;;4.63
69364;BMP280;56526;55.406;86.130;2022-10-19T06:43:53;98660.91;;;4.68
69364;BMP280;56526;55.406;86.130;2022-10-19T06:46:22;98655.16;;;4.66
69364;BMP280;56526;55.406;86.130;2022-10-19T06:48:56;98649.41;;;4.64
69364;BMP280;56526;55.406;86.130;2022-10-19T06:51:27;98650.44;;;4.63
69364;BMP280;56526;55.406;86.130;2022-10-19T06:53:55;98650.69;;;4.61
69364;BMP280;56526;55.406;86.130;2022-10-19T06:56:21;98646.25;;;4.62
69364;BMP280;56526;55.406;86.130;2022-10-19T06:58:48;98650.44;;;4.63
69364;BMP280;56526;55.406;86.130;2022-10-19T07:01:14;98650.69;;;4.61
69364;BMP280;56526;55.406;86.130;2022-10-19T07:03:40;98651.25;;;4.58
69364;BMP280;56526;55.406;86.130;2022-10-19T07:06:08;98646.00;;;4.58
69364;BMP280;56526;55.406;86.130;2022-10-19T07:08:37;98649.69;;;4.57
69364;BMP280;56526;55.406;86.130;2022-10-19T07:11:09;98643.38;;;4.58
69364;BMP280;56526;55.406;86.130;2022-10-19T07:13:38;98651.25;;;4.58
69364;BMP280;56526;55.406;86.130;2022-10-19T07:16:07;98642.59;;;4.58
69364;BMP280;56526;55.406;86.130;2022-10-19T07:18:36;98640.50;;;4.60
69364;BMP280;56526;55.406;86.130;2022-10-19T07:21:08;98645.47;;;4.61
69364;BMP280;56526;55.406;86.130;2022-10-19T07:23:37;98639.94;;;4.63
69364;BMP280;56526;55.406;86.130;2022-10-19T07:26:22;98637.88;;;4.65
69364;BMP280;56526;55.406;86.130;2022-10-19T07:28:50;98637.06;;;4.69
69364;BMP280;56526;55.406;86.130;2022-10-19T07:31:22;98643.34;;;4.73
69364;BMP280;56526;55.406;86.130;2022-10-19T07:33:58;98643.00;;;4.80
69364;BMP280;56526;55.406;86.130;2022-10-19T07:36:27;98639.59;;;4.85
69364;BMP280;56526;55.406;86.130;2022-10-19T07:38:54;98637.44;;;4.92
69364;BMP280;56526;55.406;86.130;2022-10-19T07:41:23;98638.97;;;4.98
69364;BMP280;56526;55.406;86.130;2022-10-19T07:43:50;98638.19;;;5.02
69364;BMP280;56526;55.406;86.130;2022-10-19T07:46:23;98641.31;;;5.04
69364;BMP280;56526;55.406;86.130;2022-10-19T07:48:51;98636.84;;;5.05
69364;BMP280;56526;55.406;86.130;2022-10-19T07:51:19;98642.38;;;5.03
69364;BMP280;56526;55.406;86.130;2022-10-19T07:53:46;98638.69;;;5.04
69364;BMP280;56526;55.406;86.130;2022-10-19T07:56:14;98643.94;;;5.04
69364;BMP280;56526;55.406;86.130;2022-10-19T07:58:42;98643.66;;;5.06
69364;BMP280;56526;55.406;86.130;2022-10-19T08:01:14;98643.59;;;5.11
69364;BMP280;56526;55.406;86.130;2022-10-19T08:03:42;98649.34;;;5.18
69364;BMP280;56526;55.406;86.130;2022-10-19T08:06:11;98646.41;;;5.25
69364;BMP280;56526;55.406;86.130;2022-10-19T08:08:39;98648.72;;;5.31
69364;BMP280;56526;55.406;86.130;2022-10-19T08:13:53;98647.53;;;5.48
69364;BMP280;56526;55.406;86.130;2022-10-19T08:16:37;98657.41;;;5.61
69364;BMP280;56526;55.406;86.130;2022-10-19T08:19:14;98660.75;;;5.66
69364;BMP280;56526;55.406;86.130;2022-10-19T08:21:43;98659.94;;;5.71
69364;BMP280;56526;55.406;86.130;2022-10-19T08:24:12;98660.94;;;5.75
69364;BMP280;56526;55.406;86.130;2022-10-19T08:26:40;98658.03;;;5.77
69364;BMP280;56526;55.406;86.130;2022-10-19T08:29:09;98649.09;;;5.78
69364;BMP280;56526;55.406;86.130;2022-10-19T08:31:41;98653.31;;;5.79
69364;BMP280;56526;55.406;86.130;2022-10-19T08:34:09;98654.31;;;5.83
69364;BMP280;56526;55.406;86.130;2022-10-19T08:36:38;98649.00;;;5.88
69364;BMP280;56526;55.406;86.130;2022-10-19T08:39:06;98648.44;;;5.91
69364;BMP280;56526;55.406;86.130;2022-10-19T08:44:45;98658.16;;;5.90
69364;BMP280;56526;55.406;86.130;2022-10-19T08:50:37;98657.72;;;5.83
69364;BMP280;56526;55.406;86.130;2022-10-19T08:53:11;98663.81;;;5.79
69364;BMP280;56526;55.406;86.130;2022-10-19T08:56:01;98656.00;;;5.74
69364;BMP280;56526;55.406;86.130;2022-10-19T08:59:00;98657.84;;;5.68
69364;BMP280;56526;55.406;86.130;2022-10-19T09:02:06;98661.31;;;5.63
69364;BMP280;56526;55.406;86.130;2022-10-19T09:04:47;98655.84;;;5.60
69364;BMP280;56526;55.406;86.130;2022-10-19T09:07:29;98656.38;;;5.57
69364;BMP280;56526;55.406;86.130;2022-10-19T09:15:44;98666.75;;;5.43
69364;BMP280;56526;55.406;86.130;2022-10-19T09:20:50;98669.66;;;5.42
69364;BMP280;56526;55.406;86.130;2022-10-19T09:26:19;98670.97;;;5.39
69364;BMP280;56526;55.406;86.130;2022-10-19T09:31:30;98674.41;;;5.34
69364;BMP280;56526;55.406;86.130;2022-10-19T09:34:05;98675.75;;;5.32
69364;BMP280;56526;55.406;86.130;2022-10-19T09:36:42;98677.03;;;5.29
69364;BMP280;56526;55.406;86.130;2022-10-19T09:39:12;98672.06;;;5.28
69364;BMP280;56526;55.406;86.130;2022-10-19T09:41:46;98669.75;;;5.26
69364;BMP280;56526;55.406;86.130;2022-10-19T09:44:16;98677.63;;;5.26
69364;BMP280;56526;55.406;86.130;2022-10-19T09:47:34;98671.88;;;5.24
69364;BMP280;56526;55.406;86.130;2022-10-19T09:50:23;98688.66;;;5.23
69364;BMP280;56526;55.406;86.130;2022-10-19T09:52:58;98681.31;;;5.20
69364;BMP280;56526;55.406;86.130;2022-10-19T10:00:45;98679.25;;;5.17
69364;BMP280;56526;55.406;86.130;2022-10-19T10:03:34;98683.69;;;5.17
69364;BMP280;56526;55.406;86.130;2022-10-19T10:06:04;98682.41;;;5.14
69364;BMP280;56526;55.406;86.130;2022-10-19T10:08:44;98682.69;;;5.13
69364;BMP280;56526;55.406;86.130;2022-10-19T10:11:15;98676.91;;;5.11
69364;BMP280;56526;55.406;86.130;2022-10-19T10:14:14;98676.16;;;5.10
69364;BMP280;56526;55.406;86.130;2022-10-19T10:16:54;98679.03;;;5.09
69364;BMP280;56526;55.406;86.130;2022-10-19T10:20:01;98677.19;;;5.09
69364;BMP280;56526;55.406;86.130;2022-10-19T10:22:33;98681.66;;;5.09
69364;BMP280;56526;55.406;86.130;2022-10-19T10:25:16;98681.94;;;5.07
69364;BMP280;56526;55.406;86.130;2022-10-19T10:27:54;98677.75;;;5.06
69364;BMP280;56526;55.406;86.130;2022-10-19T10:30:26;98684.06;;;5.05
69364;BMP280;56526;55.406;86.130;2022-10-19T10:32:58;98688.25;;;5.06
69364;BMP280;56526;55.406;86.130;2022-10-19T10:35:32;98683.78;;;5.07
69364;BMP280;56526;55.406;86.130;2022-10-19T10:38:22;98687.97;;;5.08
69364;BMP280;56526;55.406;86.130;2022-10-19T10:40:55;98683.78;;;5.07
69364;BMP280;56526;55.406;86.130;2022-10-19T10:43:29;98689.03;;;5.07
69364;BMP280;56526;55.406;86.130;2022-10-19T10:46:14;98686.41;;;5.07
69364;BMP280;56526;55.406;86.130;2022-10-19T10:48:55;98691.63;;;5.07
69364;BMP280;56526;55.406;86.130;2022-10-19T10:51:37;98688.50;;;5.04
69364;BMP280;56526;55.406;86.130;2022-10-19T10:54:17;98691.13;;;5.04
69364;BMP280;56526;55.406;86.130;2022-10-19T11:02:13;98692.97;;;5.04
69364;BMP280;56526;55.406;86.130;2022-10-19T11:04:52;98700.84;;;5.04
69364;BMP280;56526;55.406;86.130;2022-10-19T11:07:23;98700.31;;;5.02
69364;BMP280;56526;55.406;86.130;2022-10-19T11:09:59;98695.09;;;5.02
69364;BMP280;56526;55.406;86.130;2022-10-19T11:12:40;98696.09;;;5.01
69364;BMP280;56526;55.406;86.130;2022-10-19T11:15:24;98700.84;;;4.99
69364;BMP280;56526;55.406;86.130;2022-10-19T11:18:15;98707.66;;;5.00
69364;BMP280;56526;55.406;86.130;2022-10-19T11:21:12;98718.13;;;5.00
69364;BMP280;56526;55.406;86.130;2022-10-19T11:27:35;98712.97;;;4.90
69364;BMP280;56526;55.406;86.130;2022-10-19T11:30:15;98710.13;;;4.76
69364;BMP280;56526;55.406;86.130;2022-10-19T11:35:57;98713.59;;;4.66
69364;BMP280;56526;55.406;86.130;2022-10-19T11:42:28;98718.28;;;4.69
69364;BMP280;56526;55.406;86.130;2022-10-19T11:45:54;98713.84;;;4.75
69364;BMP280;56526;55.406;86.130;2022-10-19T11:51:57;98719.28;;;4.84
69364;BMP280;56526;55.406;86.130;2022-10-19T11:57:23;98728.22;;;4.83
69364;BMP280;56526;55.406;86.130;2022-10-19T12:00:04;98731.06;;;4.81
69364;BMP280;56526;55.406;86.130;2022-10-19T12:08:18;98745.56;;;4.73
69364;BMP280;56526;55.406;86.130;2022-10-19T12:13:50;98751.31;;;4.70
69364;BMP280;56526;55.406;86.130;2022-10-19T12:16:20;98749.72;;;4.69
69364;BMP280;56526;55.406;86.130;2022-10-19T12:18:58;98748.94;;;4.69
69364;BMP280;56526;55.406;86.130;2022-10-19T12:21:39;98749.50;;;4.66
69364;BMP280;56526;55.406;86.130;2022-10-19T12:24:13;98748.19;;;4.63
69364;BMP280;56526;55.406;86.130;2022-10-19T12:26:44;98747.63;;;4.61
69364;BMP280;56526;55.406;86.130;2022-10-19T12:29:18;98747.63;;;4.61
69364;BMP280;56526;55.406;86.130;2022-10-19T12:32:06;98747.13;;;4.59
69364;BMP280;56526;55.406;86.130;2022-10-19T12:34:39;98760.00;;;4.56
69364;BMP280;56526;55.406;86.130;2022-10-19T12:37:24;98752.66;;;4.53
69364;BMP280;56526;55.406;86.130;2022-10-19T12:40:18;98758.44;;;4.50
69364;BMP280;56526;55.406;86.130;2022-10-19T12:43:12;98752.44;;;4.44
69364;BMP280;56526;55.406;86.130;2022-10-19T12:48:24;98751.16;;;4.36
69364;BMP280;56526;55.406;86.130;2022-10-19T12:53:25;98763.72;;;4.29
69364;BMP280;56526;55.406;86.130;2022-10-19T12:56:03;98761.88;;;4.25
69364;BMP280;56526;55.406;86.130;2022-10-19T13:01:12;98766.34;;;4.14
69364;BMP280;56526;55.406;86.130;2022-10-19T13:03:41;98767.41;;;4.08
69364;BMP280;56526;55.406;86.130;2022-10-19T13:06:15;98771.34;;;4.05
69364;BMP280;56526;55.406;86.130;2022-10-19T13:11:19;98771.31;;;4.00
69364;BMP280;56526;55.406;86.130;2022-10-19T13:13:54;98774.19;;;3.99
69364;BMP280;56526;55.406;86.130;2022-10-19T13:19:04;98769.22;;;3.92
69364;BMP280;56526;55.406;86.130;2022-10-19T13:32:39;98774.19;;;3.99
69364;BMP280;56526;55.406;86.130;2022-10-19T13:35:30;98776.28;;;4.02
69364;BMP280;56526;55.406;86.130;2022-10-19T13:43:18;98773.41;;;4.03
69364;BMP280;56526;55.406;86.130;2022-10-19T13:46:11;98770.00;;;4.03
69364;BMP280;56526;55.406;86.130;2022-10-19T13:55:17;98773.66;;;4.02
69364;BMP280;56526;55.406;86.130;2022-10-19T14:06:55;98776.31;;;4.07
69364;BMP280;56526;55.406;86.130;2022-10-19T14:14:54;98786.25;;;4.10
69364;BMP280;56526;55.406;86.130;2022-10-19T14:17:26;98784.16;;;4.12
69364;BMP280;56526;55.406;86.130;2022-10-19T14:19:58;98789.91;;;4.14
69364;BMP280;56526;55.406;86.130;2022-10-19T14:22:32;98783.66;;;4.15
69364;BMP280;56526;55.406;86.130;2022-10-19T14:25:06;98788.88;;;4.15
69364;BMP280;56526;55.406;86.130;2022-10-19T14:28:06;98793.84;;;4.17
69364;BMP280;56526;55.406;86.130;2022-10-19T14:30:35;98783.09;;;4.18
69364;BMP280;56526;55.406;86.130;2022-10-19T14:33:08;98783.88;;;4.19
69364;BMP280;56526;55.406;86.130;2022-10-19T14:35:37;98783.88;;;4.19
69364;BMP280;56526;55.406;86.130;2022-10-19T14:38:06;98778.63;;;4.19
69364;BMP280;56526;55.406;86.130;2022-10-19T14:40:38;98777.59;;;4.20
69364;BMP280;56526;55.406;86.130;2022-10-19T14:43:26;98775.22;;;4.18
69364;BMP280;56526;55.406;86.130;2022-10-19T14:46:09;98773.66;;;4.17
69364;BMP280;56526;55.406;86.130;2022-10-19T14:48:44;98772.63;;;4.18
69364;BMP280;56526;55.406;86.130;2022-10-19T14:56:52;98780.75;;;4.17
69364;BMP280;56526;55.406;86.130;2022-10-19T14:59:25;98783.88;;;4.13
69364;BMP280;56526;55.406;86.130;2022-10-19T15:01:57;98789.66;;;4.10
69364;BMP280;56526;55.406;86.130;2022-10-19T15:04:28;98793.31;;;4.09
69364;BMP280;56526;55.406;86.130;2022-10-19T15:06:58;98791.75;;;4.08
69364;BMP280;56526;55.406;86.130;2022-10-19T15:09:29;98797.50;;;4.05
69364;BMP280;56526;55.406;86.130;2022-10-19T15:12:17;98794.06;;;4.05
69364;BMP280;56526;55.406;86.130;2022-10-19T15:14:54;98800.34;;;4.04
69364;BMP280;56526;55.406;86.130;2022-10-19T15:17:30;98798.00;;;4.02
69364;BMP280;56526;55.406;86.130;2022-10-19T15:19:58;98793.03;;;4.01
69364;BMP280;56526;55.406;86.130;2022-10-19T15:25:32;98800.63;;;3.97
69364;BMP280;56526;55.406;86.130;2022-10-19T15:28:19;98801.41;;;3.98
69364;BMP280;56526;55.406;86.130;2022-10-19T15:31:46;98799.59;;;3.98
69364;BMP280;56526;55.406;86.130;2022-10-19T15:33:57;98802.97;;;3.99
69364;BMP280;56526;55.406;86.130;2022-10-19T15:36:25;98803.75;;;3.99
69364;BMP280;56526;55.406;86.130;2022-10-19T15:39:06;98800.88;;;4.01
69364;BMP280;56526;55.406;86.130;2022-10-19T15:41:35;98799.56;;;4.03
69364;BMP280;56526;55.406;86.130;2022-10-19T15:44:04;98805.59;;;4.04
69364;BMP280;56526;55.406;86.130;2022-10-19T15:46:33;98805.59;;;4.04
69364;BMP280;56526;55.406;86.130;2022-10-19T15:51:43;98811.88;;;3.98
69364;BMP280;56526;55.406;86.130;2022-10-19T15:54:11;98805.09;;;3.97
69364;BMP280;56526;55.406;86.130;2022-10-19T15:56:39;98802.72;;;3.95
69364;BMP280;56526;55.406;86.130;2022-10-19T15:59:11;98802.72;;;3.90
69364;BMP280;56526;55.406;86.130;2022-10-19T16:01:43;98801.16;;;3.89
69364;BMP280;56526;55.406;86.130;2022-10-19T16:04:10;98798.25;;;3.86
69364;BMP280;56526;55.406;86.130;2022-10-19T16:06:39;98796.94;;;3.83
69364;BMP280;56526;55.406;86.130;2022-10-19T16:09:12;98798.53;;;3.79
69364;BMP280;56526;55.406;86.130;2022-10-19T16:11:43;98793.78;;;3.76
69364;BMP280;56526;55.406;86.130;2022-10-19T16:14:09;98800.34;;;3.73
69364;BMP280;56526;55.406;86.130;2022-10-19T16:16:36;98796.44;;;3.71
69364;BMP280;56526;55.406;86.130;2022-10-19T16:19:02;98794.56;;;3.66
69364;BMP280;56526;55.406;86.130;2022-10-19T16:21:32;98799.53;;;3.63
69364;BMP280;56526;55.406;86.130;2022-10-19T16:24:00;98800.06;;;3.60
69364;BMP280;56526;55.406;86.130;2022-10-19T16:26:27;98807.38;;;3.58
69364;BMP280;56526;55.406;86.130;2022-10-19T16:28:53;98802.63;;;3.54
69364;BMP280;56526;55.406;86.130;2022-10-19T16:31:21;98795.06;;;3.53
69364;BMP280;56526;55.406;86.130;2022-10-19T16:33:48;98801.06;;;3.53
69364;BMP280;56526;55.406;86.130;2022-10-19T16:36:14;98798.72;;;3.52
69364;BMP280;56526;55.406;86.130;2022-10-19T16:38:40;98796.88;;;3.52
69364;BMP280;56526;55.406;86.130;2022-10-19T16:41:08;98801.34;;;3.52
69364;BMP280;56526;55.406;86.130;2022-10-19T16:43:35;98801.34;;;3.52
69364;BMP280;56526;55.406;86.130;2022-10-19T16:46:02;98798.72;;;3.52
69364;BMP280;56526;55.406;86.130;2022-10-19T16:48:30;98806.81;;;3.50
69364;BMP280;56526;55.406;86.130;2022-10-19T16:53:33;98800.03;;;3.49
69364;BMP280;56526;55.406;86.130;2022-10-19T16:56:06;98803.72;;;3.48
69364;BMP280;56526;55.406;86.130;2022-10-19T16:58:38;98807.38;;;3.47
69364;BMP280;56526;55.406;86.130;2022-10-19T17:01:33;98802.38;;;3.46
69364;BMP280;56526;55.406;86.130;2022-10-19T17:03:59;98806.28;;;3.43
69364;BMP280;56526;55.406;86.130;2022-10-19T17:06:26;98803.41;;;3.40
69364;BMP280;56526;55.406;86.130;2022-10-19T17:08:56;98803.41;;;3.40